Atyla — YJTM7 — position and weather

sailwx.info

Track history (hours):
 
Tides and Currents Weather Stations Pressure Air Temp Water Temp Dewpoint Dewpoint Depression Visibility Wind Speed Wind Dir Waves Ship Positions

Atyla

Ship's website: http://atylaship.com

Last reported at 2019-Aug-22 08:19 UTC. Time now 2019-Aug-22 10:07 UTC.
Position N 51°05' E 002°29'.

Length 22 m.

Type: Sailing vessel. MMSI: 577192000.

Date/timePositionNaut miles runAvg speedWind from/ knotsBaromVisibWave heightAir tempDewpointWater temp
2019-Aug-22 08:19N 51°05' E 002°29'2 6.8
2019-Aug-22 08:00N 51°07' E 002°31'3 6.5
2019-Aug-22 07:30N 51°09' E 002°35'3 6.4
2019-Aug-22 07:00N 51°10' E 002°40'3 5.9
2019-Aug-22 06:29N 51°11' E 002°44'3 5.7
2019-Aug-22 06:00N 51°12' E 002°48'4 2.8
2019-Aug-22 04:31N 51°15' E 002°53'0 0.0
2019-Aug-22 01:34N 51°15' E 002°53'0 0.0
2019-Aug-21 23:19N 51°15' E 002°53'197 4.5
2019-Aug-20 03:55N 53°23' E 006°58'2 4.5
2019-Aug-20 03:30N 53°21' E 006°59'2 4.9
2019-Aug-20 03:00N 53°19' E 006°59'2 3.7
2019-Aug-20 02:29N 53°20' E 006°56'0 0.0
2019-Aug-20 01:59N 53°20' E 006°56'0 0.0
2019-Aug-20 01:29N 53°20' E 006°56'0 0.0
2019-Aug-20 00:59N 53°20' E 006°56'0 0.0
2019-Aug-20 00:29N 53°20' E 006°56'0 0.0
2019-Aug-19 23:59N 53°20' E 006°56'0 0.0
2019-Aug-19 23:29N 53°20' E 006°56'0 0.0
2019-Aug-19 22:59N 53°20' E 006°56'0 0.0
2019-Aug-19 22:29N 53°20' E 006°56'0 0.0
2019-Aug-19 21:59N 53°20' E 006°56'0 0.0
2019-Aug-19 21:29N 53°20' E 006°56'0 0.0
2019-Aug-19 20:59N 53°20' E 006°56'0 0.0
2019-Aug-19 20:29N 53°20' E 006°56'0 0.0
2019-Aug-19 19:59N 53°20' E 006°56'0 0.0
2019-Aug-19 19:29N 53°20' E 006°56'0 0.0
2019-Aug-19 18:59N 53°20' E 006°56'0 0.0
2019-Aug-19 18:29N 53°20' E 006°56'0 0.0
2019-Aug-19 17:59N 53°20' E 006°56'0 0.0
2019-Aug-19 17:29N 53°20' E 006°56'0 0.0
2019-Aug-19 16:59N 53°20' E 006°56'0 0.0
2019-Aug-19 16:29N 53°20' E 006°56'0 0.0
2019-Aug-19 15:59N 53°20' E 006°56'0 0.0
2019-Aug-19 15:29N 53°20' E 006°56'0 0.0
2019-Aug-19 14:59N 53°20' E 006°56'0 0.0
2019-Aug-19 14:26N 53°20' E 006°56'0 0.0
2019-Aug-19 13:59N 53°20' E 006°56'0 0.0
2019-Aug-19 13:29N 53°20' E 006°56'0 0.0
2019-Aug-19 12:59N 53°20' E 006°56'0 0.0
2019-Aug-19 12:29N 53°20' E 006°56'0 0.0
2019-Aug-19 11:59N 53°20' E 006°56'0 0.0
2019-Aug-19 11:29N 53°20' E 006°56'0 0.0
2019-Aug-19 10:59N 53°20' E 006°56'0 0.0
2019-Aug-19 10:29N 53°20' E 006°56'0 0.0
2019-Aug-19 09:59N 53°20' E 006°56'0 0.0
2019-Aug-19 09:29N 53°20' E 006°56'0 0.0
2019-Aug-19 08:59N 53°20' E 006°56'0 0.0
2019-Aug-19 08:29N 53°20' E 006°56'0 0.0
2019-Aug-19 07:59N 53°20' E 006°56'0 0.0
2019-Aug-19 07:29N 53°20' E 006°56'0 0.0
2019-Aug-19 07:00N 53°20' E 006°56'0 0.0
2019-Aug-19 06:29N 53°20' E 006°56'0 0.0
2019-Aug-19 06:00N 53°20' E 006°56'0 0.0
2019-Aug-19 05:29N 53°20' E 006°56'0 0.0
2019-Aug-19 04:59N 53°20' E 006°56'0 0.0
2019-Aug-19 04:29N 53°20' E 006°56'0 0.0
2019-Aug-19 03:59N 53°20' E 006°56'0 0.0
2019-Aug-19 03:29N 53°20' E 006°56'0 0.0
2019-Aug-19 02:59N 53°20' E 006°56'0 0.0
2019-Aug-19 02:29N 53°20' E 006°56'0 0.0
2019-Aug-19 01:59N 53°20' E 006°56'0 0.0
2019-Aug-19 01:29N 53°20' E 006°56'0 0.0
2019-Aug-19 01:00N 53°20' E 006°56'0 0.0
2019-Aug-19 00:30N 53°20' E 006°56'0 0.0
2019-Aug-19 00:00N 53°20' E 006°56'0 0.0
2019-Aug-18 23:30N 53°20' E 006°56'0 0.0
2019-Aug-18 23:00N 53°20' E 006°56'0 0.0
2019-Aug-18 22:30N 53°20' E 006°56'0 0.0
2019-Aug-18 22:00N 53°20' E 006°56'0 0.0
2019-Aug-18 21:30N 53°20' E 006°56'0 0.0
2019-Aug-18 21:00N 53°20' E 006°56'0 0.0
2019-Aug-18 20:30N 53°20' E 006°56'0 0.0
2019-Aug-18 20:00N 53°20' E 006°56'0 0.0
2019-Aug-18 19:30N 53°20' E 006°56'0 0.0
2019-Aug-18 19:00N 53°20' E 006°56'0 0.0
2019-Aug-18 18:27N 53°20' E 006°56'0 0.0
2019-Aug-18 18:00N 53°20' E 006°56'0 0.0
2019-Aug-18 17:30N 53°20' E 006°56'0 0.0
2019-Aug-18 17:00N 53°20' E 006°56'0 0.0
2019-Aug-18 16:30N 53°20' E 006°56'0 0.0
2019-Aug-18 16:00N 53°20' E 006°56'0 0.0
2019-Aug-18 15:30N 53°20' E 006°56'0 0.0
2019-Aug-18 15:00N 53°20' E 006°56'0 0.0
2019-Aug-18 14:30N 53°20' E 006°56'0 0.0
2019-Aug-18 14:00N 53°20' E 006°56'0 0.0
2019-Aug-18 13:30N 53°20' E 006°56'0 0.0
2019-Aug-18 13:00N 53°20' E 006°56'0 0.0
2019-Aug-18 12:30N 53°20' E 006°56'0 0.0
2019-Aug-18 11:57N 53°20' E 006°56'0 0.0
2019-Aug-18 11:30N 53°20' E 006°56'0 0.0
2019-Aug-18 11:00N 53°20' E 006°56'0 0.0
2019-Aug-18 10:30N 53°20' E 006°56'0 0.0
2019-Aug-18 10:00N 53°20' E 006°56'0 0.0
2019-Aug-18 09:30N 53°20' E 006°56'0 0.0
2019-Aug-18 09:00N 53°20' E 006°56'0 0.0
2019-Aug-18 08:30N 53°20' E 006°56'0 0.0
2019-Aug-18 08:00N 53°20' E 006°56'0 0.0
2019-Aug-18 07:00N 53°20' E 006°56'0 0.0
2019-Aug-18 06:30N 53°20' E 006°56'0 0.0
2019-Aug-18 06:00N 53°20' E 006°56'0 0.0
2019-Aug-18 05:30N 53°20' E 006°56'0 0.0
2019-Aug-18 05:00N 53°20' E 006°56'0 0.0
2019-Aug-18 04:30N 53°20' E 006°56'0 0.0
2019-Aug-18 04:00N 53°20' E 006°56'0 0.0
2019-Aug-18 03:30N 53°20' E 006°56'0 0.0
2019-Aug-18 03:00N 53°20' E 006°56'0 0.0
2019-Aug-18 02:30N 53°20' E 006°56'0 0.0
2019-Aug-18 01:57N 53°20' E 006°56'0 0.0
2019-Aug-18 01:30N 53°20' E 006°56'0 0.0
2019-Aug-18 01:00N 53°20' E 006°56'0 0.0
2019-Aug-18 00:30N 53°20' E 006°56'0 0.0
2019-Aug-18 00:00N 53°20' E 006°56'0 0.0
2019-Aug-17 23:30N 53°20' E 006°56'0 0.0
2019-Aug-17 23:00N 53°20' E 006°56'0 0.0
2019-Aug-17 22:30N 53°20' E 006°56'0 0.0
2019-Aug-17 21:57N 53°20' E 006°56'0 0.0
2019-Aug-17 21:30N 53°20' E 006°56'0 0.0
2019-Aug-17 21:00N 53°20' E 006°56'0 0.0
2019-Aug-17 20:30N 53°20' E 006°56'0 0.0
2019-Aug-17 20:00N 53°20' E 006°56'0 0.0
2019-Aug-17 19:30N 53°20' E 006°56'0 0.0
2019-Aug-17 19:00N 53°20' E 006°56'0 0.0
2019-Aug-17 18:30N 53°20' E 006°56'0 0.0
2019-Aug-17 17:30N 53°20' E 006°56'0 0.0
2019-Aug-17 17:00N 53°20' E 006°56'0 0.0
2019-Aug-17 16:30N 53°20' E 006°56'0 0.0
2019-Aug-17 16:00N 53°20' E 006°56'0 0.0
2019-Aug-17 15:30N 53°20' E 006°56'0 0.0
2019-Aug-17 15:00N 53°20' E 006°56'0 0.0
2019-Aug-17 14:30N 53°20' E 006°56'0 0.0
2019-Aug-17 14:00N 53°20' E 006°56'0 0.0
2019-Aug-17 13:30N 53°20' E 006°56'0 0.0
2019-Aug-17 13:00N 53°20' E 006°56'0 0.0
2019-Aug-17 12:30N 53°20' E 006°56'0 0.0
2019-Aug-17 12:00N 53°20' E 006°56'0 0.0
2019-Aug-17 11:30N 53°20' E 006°56'0 0.0
2019-Aug-17 11:00N 53°20' E 006°56'0 0.0
2019-Aug-17 10:30N 53°20' E 006°56'0 0.0
2019-Aug-17 10:00N 53°20' E 006°56'0 0.0
2019-Aug-17 09:30N 53°20' E 006°56'0 0.0
2019-Aug-17 09:00N 53°20' E 006°56'0 0.0
2019-Aug-17 08:30N 53°20' E 006°56'0 0.0
2019-Aug-17 08:00N 53°20' E 006°56'0 0.0
2019-Aug-17 07:30N 53°20' E 006°56'0 0.0
2019-Aug-17 07:00N 53°20' E 006°56'0 0.0
2019-Aug-17 06:30N 53°20' E 006°56'0 0.0
2019-Aug-17 06:00N 53°20' E 006°56'0 0.0
2019-Aug-17 05:30N 53°20' E 006°56'0 0.0
2019-Aug-17 05:00N 53°20' E 006°56'0 0.0
2019-Aug-17 04:30N 53°20' E 006°56'0 0.0
2019-Aug-17 03:54N 53°20' E 006°56'0 0.0
2019-Aug-17 03:30N 53°20' E 006°56'0 0.0
2019-Aug-17 03:00N 53°20' E 006°56'0 0.0
2019-Aug-17 02:30N 53°20' E 006°56'0 0.0
2019-Aug-17 02:00N 53°20' E 006°56'0 0.0
2019-Aug-17 01:30N 53°20' E 006°56'0 0.0
2019-Aug-17 01:00N 53°20' E 006°56'0 0.0
2019-Aug-17 00:30N 53°20' E 006°56'0 0.0
2019-Aug-17 00:00N 53°20' E 006°56'0 0.0
2019-Aug-16 23:30N 53°20' E 006°56'0 0.0
2019-Aug-16 23:00N 53°20' E 006°56'0 0.0
2019-Aug-16 22:30N 53°20' E 006°56'0 0.0
2019-Aug-16 22:00N 53°20' E 006°56'0 0.0
2019-Aug-16 21:30N 53°20' E 006°56'0 0.0
2019-Aug-16 21:00N 53°20' E 006°56'0 0.0
2019-Aug-16 20:30N 53°20' E 006°56'0 0.0
2019-Aug-16 20:00N 53°20' E 006°56'0 0.0
2019-Aug-16 19:30N 53°20' E 006°56'0 0.0
2019-Aug-16 19:00N 53°20' E 006°56'0 0.0
2019-Aug-16 18:30N 53°20' E 006°56'0 0.0
2019-Aug-16 18:00N 53°20' E 006°56'0 0.0
2019-Aug-16 17:30N 53°20' E 006°56'0 0.0
2019-Aug-16 17:00N 53°20' E 006°56'0 0.0
2019-Aug-16 16:30N 53°20' E 006°56'0 0.0
2019-Aug-16 16:00N 53°20' E 006°56'0 0.0
2019-Aug-16 15:30N 53°20' E 006°56'0 0.0
2019-Aug-16 14:57N 53°20' E 006°56'0 0.0
2019-Aug-16 14:30N 53°20' E 006°56'0 0.0
2019-Aug-16 14:00N 53°20' E 006°56'0 0.0
2019-Aug-16 13:30N 53°20' E 006°56'0 0.0
2019-Aug-16 13:00N 53°20' E 006°56'0 0.0
2019-Aug-16 12:30N 53°20' E 006°56'0 0.0
2019-Aug-16 12:00N 53°20' E 006°56'0 0.0
2019-Aug-16 11:30N 53°20' E 006°56'0 0.0
2019-Aug-16 11:00N 53°20' E 006°56'0 0.0
2019-Aug-16 10:30N 53°20' E 006°56'0 0.0
2019-Aug-16 10:00N 53°20' E 006°56'0 0.0
2019-Aug-16 09:30N 53°20' E 006°56'0 0.0
2019-Aug-16 09:00N 53°20' E 006°56'1 2.1
2019-Aug-16 08:30N 53°19' E 006°58'2 3.3
2019-Aug-16 08:00N 53°21' E 006°59'  
2019-Aug-13 09:47N 57°03' E 009°56'1 4.2
2019-Aug-13 09:30N 57°03' E 009°58'2 3.6
2019-Aug-13 09:00N 57°05' E 009°59'2 3.3
2019-Aug-13 08:30N 57°04' E 010°02'  
Track history (hours):
 
Tides and Currents Weather Stations Pressure Air Temp Water Temp Dewpoint Dewpoint Depression Visibility Wind Speed Wind Dir Waves Ship Positions

Atyla

Ship's website: http://atylaship.com

Last reported at 2019-Aug-22 08:19 UTC. Time now 2019-Aug-22 10:07 UTC.
Position N 51°05' E 002°29'.

Length 22 m.

Type: Sailing vessel. MMSI: 577192000.

Date/timePositionNaut miles runAvg speedWind from/ knotsBaromVisibWave heightAir tempDewpointWater temp
2019-Aug-22 08:19N 51°05' E 002°29'2 6.8
2019-Aug-22 08:00N 51°07' E 002°31'3 6.5
2019-Aug-22 07:30N 51°09' E 002°35'3 6.4
2019-Aug-22 07:00N 51°10' E 002°40'3 5.9
2019-Aug-22 06:29N 51°11' E 002°44'3 5.7
2019-Aug-22 06:00N 51°12' E 002°48'4 2.8
2019-Aug-22 04:31N 51°15' E 002°53'0 0.0
2019-Aug-22 01:34N 51°15' E 002°53'0 0.0
2019-Aug-21 23:19N 51°15' E 002°53'197 4.5
2019-Aug-20 03:55N 53°23' E 006°58'2 4.5
2019-Aug-20 03:30N 53°21' E 006°59'2 4.9
2019-Aug-20 03:00N 53°19' E 006°59'2 3.7
2019-Aug-20 02:29N 53°20' E 006°56'0 0.0
2019-Aug-20 01:59N 53°20' E 006°56'0 0.0
2019-Aug-20 01:29N 53°20' E 006°56'0 0.0
2019-Aug-20 00:59N 53°20' E 006°56'0 0.0
2019-Aug-20 00:29N 53°20' E 006°56'0 0.0
2019-Aug-19 23:59N 53°20' E 006°56'0 0.0
2019-Aug-19 23:29N 53°20' E 006°56'0 0.0
2019-Aug-19 22:59N 53°20' E 006°56'0 0.0
2019-Aug-19 22:29N 53°20' E 006°56'0 0.0
2019-Aug-19 21:59N 53°20' E 006°56'0 0.0
2019-Aug-19 21:29N 53°20' E 006°56'0 0.0
2019-Aug-19 20:59N 53°20' E 006°56'0 0.0
2019-Aug-19 20:29N 53°20' E 006°56'0 0.0
2019-Aug-19 19:59N 53°20' E 006°56'0 0.0
2019-Aug-19 19:29N 53°20' E 006°56'0 0.0
2019-Aug-19 18:59N 53°20' E 006°56'0 0.0
2019-Aug-19 18:29N 53°20' E 006°56'0 0.0
2019-Aug-19 17:59N 53°20' E 006°56'0 0.0
2019-Aug-19 17:29N 53°20' E 006°56'0 0.0
2019-Aug-19 16:59N 53°20' E 006°56'0 0.0
2019-Aug-19 16:29N 53°20' E 006°56'0 0.0
2019-Aug-19 15:59N 53°20' E 006°56'0 0.0
2019-Aug-19 15:29N 53°20' E 006°56'0 0.0
2019-Aug-19 14:59N 53°20' E 006°56'0 0.0
2019-Aug-19 14:26N 53°20' E 006°56'0 0.0
2019-Aug-19 13:59N 53°20' E 006°56'0 0.0
2019-Aug-19 13:29N 53°20' E 006°56'0 0.0
2019-Aug-19 12:59N 53°20' E 006°56'0 0.0
2019-Aug-19 12:29N 53°20' E 006°56'0 0.0
2019-Aug-19 11:59N 53°20' E 006°56'0 0.0
2019-Aug-19 11:29N 53°20' E 006°56'0 0.0
2019-Aug-19 10:59N 53°20' E 006°56'0 0.0
2019-Aug-19 10:29N 53°20' E 006°56'0 0.0
2019-Aug-19 09:59N 53°20' E 006°56'0 0.0
2019-Aug-19 09:29N 53°20' E 006°56'0 0.0
2019-Aug-19 08:59N 53°20' E 006°56'0 0.0
2019-Aug-19 08:29N 53°20' E 006°56'0 0.0
2019-Aug-19 07:59N 53°20' E 006°56'0 0.0
2019-Aug-19 07:29N 53°20' E 006°56'0 0.0
2019-Aug-19 07:00N 53°20' E 006°56'0 0.0
2019-Aug-19 06:29N 53°20' E 006°56'0 0.0
2019-Aug-19 06:00N 53°20' E 006°56'0 0.0
2019-Aug-19 05:29N 53°20' E 006°56'0 0.0
2019-Aug-19 04:59N 53°20' E 006°56'0 0.0
2019-Aug-19 04:29N 53°20' E 006°56'0 0.0
2019-Aug-19 03:59N 53°20' E 006°56'0 0.0
2019-Aug-19 03:29N 53°20' E 006°56'0 0.0
2019-Aug-19 02:59N 53°20' E 006°56'0 0.0
2019-Aug-19 02:29N 53°20' E 006°56'0 0.0
2019-Aug-19 01:59N 53°20' E 006°56'0 0.0
2019-Aug-19 01:29N 53°20' E 006°56'0 0.0
2019-Aug-19 01:00N 53°20' E 006°56'0 0.0
2019-Aug-19 00:30N 53°20' E 006°56'0 0.0
2019-Aug-19 00:00N 53°20' E 006°56'0 0.0
2019-Aug-18 23:30N 53°20' E 006°56'0 0.0
2019-Aug-18 23:00N 53°20' E 006°56'0 0.0
2019-Aug-18 22:30N 53°20' E 006°56'0 0.0
2019-Aug-18 22:00N 53°20' E 006°56'0 0.0
2019-Aug-18 21:30N 53°20' E 006°56'0 0.0
2019-Aug-18 21:00N 53°20' E 006°56'0 0.0
2019-Aug-18 20:30N 53°20' E 006°56'0 0.0
2019-Aug-18 20:00N 53°20' E 006°56'0 0.0
2019-Aug-18 19:30N 53°20' E 006°56'0 0.0
2019-Aug-18 19:00N 53°20' E 006°56'0 0.0
2019-Aug-18 18:27N 53°20' E 006°56'0 0.0
2019-Aug-18 18:00N 53°20' E 006°56'0 0.0
2019-Aug-18 17:30N 53°20' E 006°56'0 0.0
2019-Aug-18 17:00N 53°20' E 006°56'0 0.0
2019-Aug-18 16:30N 53°20' E 006°56'0 0.0
2019-Aug-18 16:00N 53°20' E 006°56'0 0.0
2019-Aug-18 15:30N 53°20' E 006°56'0 0.0
2019-Aug-18 15:00N 53°20' E 006°56'0 0.0
2019-Aug-18 14:30N 53°20' E 006°56'0 0.0
2019-Aug-18 14:00N 53°20' E 006°56'0 0.0
2019-Aug-18 13:30N 53°20' E 006°56'0 0.0
2019-Aug-18 13:00N 53°20' E 006°56'0 0.0
2019-Aug-18 12:30N 53°20' E 006°56'0 0.0
2019-Aug-18 11:57N 53°20' E 006°56'0 0.0
2019-Aug-18 11:30N 53°20' E 006°56'0 0.0
2019-Aug-18 11:00N 53°20' E 006°56'0 0.0
2019-Aug-18 10:30N 53°20' E 006°56'0 0.0
2019-Aug-18 10:00N 53°20' E 006°56'0 0.0
2019-Aug-18 09:30N 53°20' E 006°56'0 0.0
2019-Aug-18 09:00N 53°20' E 006°56'0 0.0
2019-Aug-18 08:30N 53°20' E 006°56'0 0.0
2019-Aug-18 08:00N 53°20' E 006°56'0 0.0
2019-Aug-18 07:00N 53°20' E 006°56'0 0.0
2019-Aug-18 06:30N 53°20' E 006°56'0 0.0
2019-Aug-18 06:00N 53°20' E 006°56'0 0.0
2019-Aug-18 05:30N 53°20' E 006°56'0 0.0
2019-Aug-18 05:00N 53°20' E 006°56'0 0.0
2019-Aug-18 04:30N 53°20' E 006°56'0 0.0
2019-Aug-18 04:00N 53°20' E 006°56'0 0.0
2019-Aug-18 03:30N 53°20' E 006°56'0 0.0
2019-Aug-18 03:00N 53°20' E 006°56'0 0.0
2019-Aug-18 02:30N 53°20' E 006°56'0 0.0
2019-Aug-18 01:57N 53°20' E 006°56'0 0.0
2019-Aug-18 01:30N 53°20' E 006°56'0 0.0
2019-Aug-18 01:00N 53°20' E 006°56'0 0.0
2019-Aug-18 00:30N 53°20' E 006°56'0 0.0
2019-Aug-18 00:00N 53°20' E 006°56'0 0.0
2019-Aug-17 23:30N 53°20' E 006°56'0 0.0
2019-Aug-17 23:00N 53°20' E 006°56'0 0.0
2019-Aug-17 22:30N 53°20' E 006°56'0 0.0
2019-Aug-17 21:57N 53°20' E 006°56'0 0.0
2019-Aug-17 21:30N 53°20' E 006°56'0 0.0
2019-Aug-17 21:00N 53°20' E 006°56'0 0.0
2019-Aug-17 20:30N 53°20' E 006°56'0 0.0
2019-Aug-17 20:00N 53°20' E 006°56'0 0.0
2019-Aug-17 19:30N 53°20' E 006°56'0 0.0
2019-Aug-17 19:00N 53°20' E 006°56'0 0.0
2019-Aug-17 18:30N 53°20' E 006°56'0 0.0
2019-Aug-17 17:30N 53°20' E 006°56'0 0.0
2019-Aug-17 17:00N 53°20' E 006°56'0 0.0
2019-Aug-17 16:30N 53°20' E 006°56'0 0.0
2019-Aug-17 16:00N 53°20' E 006°56'0 0.0
2019-Aug-17 15:30N 53°20' E 006°56'0 0.0
2019-Aug-17 15:00N 53°20' E 006°56'0 0.0
2019-Aug-17 14:30N 53°20' E 006°56'0 0.0
2019-Aug-17 14:00N 53°20' E 006°56'0 0.0
2019-Aug-17 13:30N 53°20' E 006°56'0 0.0
2019-Aug-17 13:00N 53°20' E 006°56'0 0.0
2019-Aug-17 12:30N 53°20' E 006°56'0 0.0
2019-Aug-17 12:00N 53°20' E 006°56'0 0.0
2019-Aug-17 11:30N 53°20' E 006°56'0 0.0
2019-Aug-17 11:00N 53°20' E 006°56'0 0.0
2019-Aug-17 10:30N 53°20' E 006°56'0 0.0
2019-Aug-17 10:00N 53°20' E 006°56'0 0.0
2019-Aug-17 09:30N 53°20' E 006°56'0 0.0
2019-Aug-17 09:00N 53°20' E 006°56'0 0.0
2019-Aug-17 08:30N 53°20' E 006°56'0 0.0
2019-Aug-17 08:00N 53°20' E 006°56'0 0.0
2019-Aug-17 07:30N 53°20' E 006°56'0 0.0
2019-Aug-17 07:00N 53°20' E 006°56'0 0.0
2019-Aug-17 06:30N 53°20' E 006°56'0 0.0
2019-Aug-17 06:00N 53°20' E 006°56'0 0.0
2019-Aug-17 05:30N 53°20' E 006°56'0 0.0
2019-Aug-17 05:00N 53°20' E 006°56'0 0.0
2019-Aug-17 04:30N 53°20' E 006°56'0 0.0
2019-Aug-17 03:54N 53°20' E 006°56'0 0.0
2019-Aug-17 03:30N 53°20' E 006°56'0 0.0
2019-Aug-17 03:00N 53°20' E 006°56'0 0.0
2019-Aug-17 02:30N 53°20' E 006°56'0 0.0
2019-Aug-17 02:00N 53°20' E 006°56'0 0.0
2019-Aug-17 01:30N 53°20' E 006°56'0 0.0
2019-Aug-17 01:00N 53°20' E 006°56'0 0.0
2019-Aug-17 00:30N 53°20' E 006°56'0 0.0
2019-Aug-17 00:00N 53°20' E 006°56'0 0.0
2019-Aug-16 23:30N 53°20' E 006°56'0 0.0
2019-Aug-16 23:00N 53°20' E 006°56'0 0.0
2019-Aug-16 22:30N 53°20' E 006°56'0 0.0
2019-Aug-16 22:00N 53°20' E 006°56'0 0.0
2019-Aug-16 21:30N 53°20' E 006°56'0 0.0
2019-Aug-16 21:00N 53°20' E 006°56'0 0.0
2019-Aug-16 20:30N 53°20' E 006°56'0 0.0
2019-Aug-16 20:00N 53°20' E 006°56'0 0.0
2019-Aug-16 19:30N 53°20' E 006°56'0 0.0
2019-Aug-16 19:00N 53°20' E 006°56'0 0.0
2019-Aug-16 18:30N 53°20' E 006°56'0 0.0
2019-Aug-16 18:00N 53°20' E 006°56'0 0.0
2019-Aug-16 17:30N 53°20' E 006°56'0 0.0
2019-Aug-16 17:00N 53°20' E 006°56'0 0.0
2019-Aug-16 16:30N 53°20' E 006°56'0 0.0
2019-Aug-16 16:00N 53°20' E 006°56'0 0.0
2019-Aug-16 15:30N 53°20' E 006°56'0 0.0
2019-Aug-16 14:57N 53°20' E 006°56'0 0.0
2019-Aug-16 14:30N 53°20' E 006°56'0 0.0
2019-Aug-16 14:00N 53°20' E 006°56'0 0.0
2019-Aug-16 13:30N 53°20' E 006°56'0 0.0
2019-Aug-16 13:00N 53°20' E 006°56'0 0.0
2019-Aug-16 12:30N 53°20' E 006°56'0 0.0
2019-Aug-16 12:00N 53°20' E 006°56'0 0.0
2019-Aug-16 11:30N 53°20' E 006°56'0 0.0
2019-Aug-16 11:00N 53°20' E 006°56'0 0.0
2019-Aug-16 10:30N 53°20' E 006°56'0 0.0
2019-Aug-16 10:00N 53°20' E 006°56'0 0.0
2019-Aug-16 09:30N 53°20' E 006°56'0 0.0
2019-Aug-16 09:00N 53°20' E 006°56'1 2.1
2019-Aug-16 08:30N 53°19' E 006°58'2 3.3
2019-Aug-16 08:00N 53°21' E 006°59'  
2019-Aug-13 09:47N 57°03' E 009°56'1 4.2
2019-Aug-13 09:30N 57°03' E 009°58'2 3.6
2019-Aug-13 09:00N 57°05' E 009°59'2 3.3
2019-Aug-13 08:30N 57°04' E 010°02'  

Dump ship's entire track history